sensor_id;sensor_type;location;lat;lon;timestamp;P1;durP1;ratioP1;P2;durP2;ratioP2
20621;SDS011;10470;42.670;23.354;2023-06-10T00:02:20;12.40;;;10.37;;
20621;SDS011;10470;42.670;23.354;2023-06-10T00:04:45;11.63;;;10.20;;
20621;SDS011;10470;42.670;23.354;2023-06-10T00:07:11;11.60;;;9.23;;
20621;SDS011;10470;42.670;23.354;2023-06-10T00:09:37;13.50;;;9.63;;
20621;SDS011;10470;42.670;23.354;2023-06-10T00:12:06;14.87;;;9.80;;
20621;SDS011;10470;42.670;23.354;2023-06-10T00:14:38;10.30;;;9.30;;
20621;SDS011;10470;42.670;23.354;2023-06-10T00:17:05;11.97;;;8.77;;
20621;SDS011;10470;42.670;23.354;2023-06-10T00:19:35;11.20;;;9.00;;
20621;SDS011;10470;42.670;23.354;2023-06-10T00:22:01;9.97;;;8.97;;
20621;SDS011;10470;42.670;23.354;2023-06-10T00:24:28;9.80;;;8.37;;
20621;SDS011;10470;42.670;23.354;2023-06-10T00:26:59;10.43;;;9.43;;
20621;SDS011;10470;42.670;23.354;2023-06-10T00:29:25;11.40;;;9.33;;
20621;SDS011;10470;42.670;23.354;2023-06-10T00:31:50;11.47;;;8.80;;
20621;SDS011;10470;42.670;23.354;2023-06-10T00:34:16;10.43;;;8.90;;
20621;SDS011;10470;42.670;23.354;2023-06-10T00:36:41;10.93;;;8.90;;
20621;SDS011;10470;42.670;23.354;2023-06-10T00:39:08;12.40;;;8.70;;
20621;SDS011;10470;42.670;23.354;2023-06-10T00:41:33;12.07;;;9.10;;
20621;SDS011;10470;42.670;23.354;2023-06-10T00:43:59;11.33;;;9.80;;
20621;SDS011;10470;42.670;23.354;2023-06-10T00:46:24;12.80;;;9.57;;
20621;SDS011;10470;42.670;23.354;2023-06-10T00:48:51;13.47;;;9.60;;
20621;SDS011;10470;42.670;23.354;2023-06-10T00:51:17;9.97;;;8.87;;
20621;SDS011;10470;42.670;23.354;2023-06-10T00:53:44;11.17;;;9.80;;
20621;SDS011;10470;42.670;23.354;2023-06-10T00:56:10;10.83;;;9.73;;
20621;SDS011;10470;42.670;23.354;2023-06-10T00:58:36;11.80;;;10.17;;
20621;SDS011;10470;42.670;23.354;2023-06-10T01:01:01;12.53;;;11.20;;
20621;SDS011;10470;42.670;23.354;2023-06-10T01:03:29;14.50;;;11.23;;
20621;SDS011;10470;42.670;23.354;2023-06-10T01:06:03;14.00;;;10.90;;
20621;SDS011;10470;42.670;23.354;2023-06-10T01:12:03;13.00;;;11.63;;
20621;SDS011;10470;42.670;23.354;2023-06-10T01:14:23;14.20;;;12.50;;
20621;SDS011;10470;42.670;23.354;2023-06-10T01:16:50;13.47;;;12.07;;
20621;SDS011;10470;42.670;23.354;2023-06-10T01:19:17;14.20;;;12.73;;
20621;SDS011;10470;42.670;23.354;2023-06-10T01:21:43;12.97;;;11.43;;
20621;SDS011;10470;42.670;23.354;2023-06-10T01:24:13;14.67;;;12.57;;
20621;SDS011;10470;42.670;23.354;2023-06-10T01:26:43;16.90;;;14.03;;
20621;SDS011;10470;42.670;23.354;2023-06-10T01:34:57;14.07;;;12.57;;
20621;SDS011;10470;42.670;23.354;2023-06-10T01:37:24;15.40;;;13.53;;
20621;SDS011;10470;42.670;23.354;2023-06-10T01:39:51;14.40;;;12.90;;
20621;SDS011;10470;42.670;23.354;2023-06-10T01:42:19;15.53;;;12.63;;
20621;SDS011;10470;42.670;23.354;2023-06-10T01:44:46;13.73;;;12.07;;
20621;SDS011;10470;42.670;23.354;2023-06-10T01:47:12;16.27;;;11.77;;
20621;SDS011;10470;42.670;23.354;2023-06-10T01:49:37;15.37;;;11.93;;
20621;SDS011;10470;42.670;23.354;2023-06-10T01:52:03;16.70;;;12.13;;
20621;SDS011;10470;42.670;23.354;2023-06-10T01:54:28;15.97;;;12.07;;
20621;SDS011;10470;42.670;23.354;2023-06-10T01:56:54;15.00;;;11.93;;
20621;SDS011;10470;42.670;23.354;2023-06-10T01:59:19;13.03;;;11.73;;
20621;SDS011;10470;42.670;23.354;2023-06-10T02:01:45;13.17;;;11.23;;
20621;SDS011;10470;42.670;23.354;2023-06-10T02:04:10;15.00;;;11.50;;
20621;SDS011;10470;42.670;23.354;2023-06-10T02:06:36;15.37;;;11.10;;
20621;SDS011;10470;42.670;23.354;2023-06-10T02:09:02;12.80;;;11.50;;
20621;SDS011;10470;42.670;23.354;2023-06-10T02:11:28;13.97;;;10.73;;
20621;SDS011;10470;42.670;23.354;2023-06-10T02:13:54;16.60;;;10.97;;
20621;SDS011;10470;42.670;23.354;2023-06-10T02:16:19;13.57;;;11.83;;
20621;SDS011;10470;42.670;23.354;2023-06-10T02:18:46;16.13;;;11.17;;
20621;SDS011;10470;42.670;23.354;2023-06-10T02:21:13;12.33;;;11.03;;
20621;SDS011;10470;42.670;23.354;2023-06-10T02:23:39;14.10;;;10.70;;
20621;SDS011;10470;42.670;23.354;2023-06-10T02:26:05;12.10;;;10.70;;
20621;SDS011;10470;42.670;23.354;2023-06-10T02:28:31;12.90;;;11.30;;
20621;SDS011;10470;42.670;23.354;2023-06-10T02:30:56;14.43;;;11.73;;
20621;SDS011;10470;42.670;23.354;2023-06-10T02:33:22;14.10;;;12.00;;
20621;SDS011;10470;42.670;23.354;2023-06-10T02:35:49;13.90;;;11.93;;
20621;SDS011;10470;42.670;23.354;2023-06-10T02:38:15;14.10;;;12.00;;
20621;SDS011;10470;42.670;23.354;2023-06-10T02:40:40;12.53;;;11.27;;
20621;SDS011;10470;42.670;23.354;2023-06-10T02:43:05;12.73;;;11.17;;
20621;SDS011;10470;42.670;23.354;2023-06-10T02:45:31;15.93;;;11.37;;
20621;SDS011;10470;42.670;23.354;2023-06-10T02:47:56;16.43;;;10.97;;
20621;SDS011;10470;42.670;23.354;2023-06-10T02:50:22;14.93;;;10.80;;
20621;SDS011;10470;42.670;23.354;2023-06-10T02:52:48;15.00;;;11.43;;
20621;SDS011;10470;42.670;23.354;2023-06-10T02:55:13;13.73;;;10.93;;
20621;SDS011;10470;42.670;23.354;2023-06-10T02:57:39;12.30;;;10.90;;
20621;SDS011;10470;42.670;23.354;2023-06-10T03:00:05;12.13;;;10.83;;
20621;SDS011;10470;42.670;23.354;2023-06-10T03:02:35;13.17;;;10.67;;
20621;SDS011;10470;42.670;23.354;2023-06-10T03:05:03;13.73;;;10.77;;
20621;SDS011;10470;42.670;23.354;2023-06-10T03:07:30;15.60;;;11.77;;
20621;SDS011;10470;42.670;23.354;2023-06-10T03:09:56;13.27;;;10.93;;
20621;SDS011;10470;42.670;23.354;2023-06-10T03:12:21;16.13;;;12.93;;
20621;SDS011;10470;42.670;23.354;2023-06-10T03:14:47;15.87;;;12.87;;
20621;SDS011;10470;42.670;23.354;2023-06-10T03:17:12;15.03;;;11.70;;
20621;SDS011;10470;42.670;23.354;2023-06-10T03:19:38;13.97;;;11.57;;
20621;SDS011;10470;42.670;23.354;2023-06-10T03:22:08;12.73;;;11.43;;
20621;SDS011;10470;42.670;23.354;2023-06-10T03:24:35;15.83;;;12.87;;
20621;SDS011;10470;42.670;23.354;2023-06-10T03:27:01;13.40;;;12.00;;
20621;SDS011;10470;42.670;23.354;2023-06-10T03:29:30;15.87;;;12.50;;
20621;SDS011;10470;42.670;23.354;2023-06-10T03:31:55;13.57;;;12.17;;
20621;SDS011;10470;42.670;23.354;2023-06-10T03:34:21;14.53;;;13.03;;
20621;SDS011;10470;42.670;23.354;2023-06-10T03:36:48;16.03;;;12.43;;
20621;SDS011;10470;42.670;23.354;2023-06-10T03:39:14;17.87;;;12.37;;
20621;SDS011;10470;42.670;23.354;2023-06-10T03:41:40;14.67;;;12.30;;
20621;SDS011;10470;42.670;23.354;2023-06-10T03:44:06;14.20;;;12.07;;
20621;SDS011;10470;42.670;23.354;2023-06-10T03:46:33;15.33;;;12.60;;
20621;SDS011;10470;42.670;23.354;2023-06-10T03:48:58;15.97;;;11.87;;
20621;SDS011;10470;42.670;23.354;2023-06-10T03:51:29;13.73;;;12.00;;
20621;SDS011;10470;42.670;23.354;2023-06-10T03:53:54;13.50;;;11.47;;
20621;SDS011;10470;42.670;23.354;2023-06-10T03:56:20;19.13;;;12.60;;
20621;SDS011;10470;42.670;23.354;2023-06-10T03:58:45;16.07;;;12.17;;
20621;SDS011;10470;42.670;23.354;2023-06-10T04:01:11;14.10;;;11.93;;
20621;SDS011;10470;42.670;23.354;2023-06-10T04:03:38;13.07;;;10.53;;
20621;SDS011;10470;42.670;23.354;2023-06-10T04:06:04;14.23;;;11.27;;
20621;SDS011;10470;42.670;23.354;2023-06-10T04:08:30;13.47;;;11.10;;
20621;SDS011;10470;42.670;23.354;2023-06-10T04:10:56;13.60;;;10.87;;
20621;SDS011;10470;42.670;23.354;2023-06-10T04:13:23;13.40;;;10.30;;
20621;SDS011;10470;42.670;23.354;2023-06-10T04:15:49;11.27;;;9.83;;
20621;SDS011;10470;42.670;23.354;2023-06-10T04:18:14;13.20;;;9.73;;
20621;SDS011;10470;42.670;23.354;2023-06-10T04:20:40;12.40;;;9.50;;
20621;SDS011;10470;42.670;23.354;2023-06-10T04:23:05;10.50;;;8.93;;
20621;SDS011;10470;42.670;23.354;2023-06-10T04:25:31;11.20;;;9.40;;
20621;SDS011;10470;42.670;23.354;2023-06-10T04:27:57;13.83;;;8.97;;
20621;SDS011;10470;42.670;23.354;2023-06-10T04:30:22;11.03;;;9.43;;
20621;SDS011;10470;42.670;23.354;2023-06-10T04:32:47;12.00;;;9.20;;
20621;SDS011;10470;42.670;23.354;2023-06-10T04:35:13;9.03;;;8.00;;
20621;SDS011;10470;42.670;23.354;2023-06-10T04:37:40;16.23;;;8.60;;
20621;SDS011;10470;42.670;23.354;2023-06-10T04:40:06;9.90;;;8.20;;
20621;SDS011;10470;42.670;23.354;2023-06-10T04:42:32;11.03;;;7.90;;
20621;SDS011;10470;42.670;23.354;2023-06-10T04:44:58;9.63;;;8.00;;
20621;SDS011;10470;42.670;23.354;2023-06-10T04:47:23;12.97;;;8.10;;
20621;SDS011;10470;42.670;23.354;2023-06-10T04:49:49;9.10;;;8.00;;
20621;SDS011;10470;42.670;23.354;2023-06-10T04:52:14;14.10;;;8.20;;
20621;SDS011;10470;42.670;23.354;2023-06-10T04:54:40;11.13;;;8.40;;
20621;SDS011;10470;42.670;23.354;2023-06-10T04:57:06;11.70;;;9.30;;
20621;SDS011;10470;42.670;23.354;2023-06-10T04:59:33;10.73;;;9.60;;
20621;SDS011;10470;42.670;23.354;2023-06-10T05:02:02;11.43;;;9.80;;
20621;SDS011;10470;42.670;23.354;2023-06-10T05:04:28;11.77;;;9.70;;
20621;SDS011;10470;42.670;23.354;2023-06-10T05:06:54;12.77;;;10.83;;
20621;SDS011;10470;42.670;23.354;2023-06-10T05:09:20;15.27;;;11.73;;
20621;SDS011;10470;42.670;23.354;2023-06-10T05:11:46;14.13;;;11.53;;
20621;SDS011;10470;42.670;23.354;2023-06-10T05:14:11;15.60;;;11.20;;
20621;SDS011;10470;42.670;23.354;2023-06-10T05:16:37;13.87;;;10.90;;
20621;SDS011;10470;42.670;23.354;2023-06-10T05:19:03;13.47;;;11.37;;
20621;SDS011;10470;42.670;23.354;2023-06-10T05:21:29;14.07;;;10.73;;
20621;SDS011;10470;42.670;23.354;2023-06-10T05:23:55;14.97;;;10.87;;
20621;SDS011;10470;42.670;23.354;2023-06-10T05:26:20;24.00;;;14.73;;
20621;SDS011;10470;42.670;23.354;2023-06-10T05:28:46;130.17;;;43.67;;
20621;SDS011;10470;42.670;23.354;2023-06-10T05:31:12;25.93;;;15.10;;
20621;SDS011;10470;42.670;23.354;2023-06-10T05:33:38;53.30;;;22.73;;
20621;SDS011;10470;42.670;23.354;2023-06-10T05:36:04;36.97;;;18.53;;
20621;SDS011;10470;42.670;23.354;2023-06-10T05:38:30;42.13;;;19.87;;
20621;SDS011;10470;42.670;23.354;2023-06-10T05:40:55;65.13;;;27.17;;
20621;SDS011;10470;42.670;23.354;2023-06-10T05:43:22;32.57;;;20.70;;
20621;SDS011;10470;42.670;23.354;2023-06-10T05:45:47;23.87;;;15.13;;
20621;SDS011;10470;42.670;23.354;2023-06-10T05:48:13;16.90;;;14.50;;
20621;SDS011;10470;42.670;23.354;2023-06-10T05:50:38;20.83;;;15.00;;
20621;SDS011;10470;42.670;23.354;2023-06-10T05:53:07;21.83;;;15.63;;
20621;SDS011;10470;42.670;23.354;2023-06-10T05:55:40;18.17;;;14.23;;
20621;SDS011;10470;42.670;23.354;2023-06-10T05:58:07;30.87;;;17.97;;
20621;SDS011;10470;42.670;23.354;2023-06-10T06:00:32;17.93;;;14.93;;
20621;SDS011;10470;42.670;23.354;2023-06-10T06:02:58;19.27;;;16.27;;
20621;SDS011;10470;42.670;23.354;2023-06-10T06:05:24;16.27;;;13.73;;
20621;SDS011;10470;42.670;23.354;2023-06-10T06:07:50;20.17;;;15.00;;
20621;SDS011;10470;42.670;23.354;2023-06-10T06:10:16;15.80;;;13.57;;
20621;SDS011;10470;42.670;23.354;2023-06-10T06:12:42;15.10;;;12.10;;
20621;SDS011;10470;42.670;23.354;2023-06-10T06:15:08;13.40;;;11.80;;
20621;SDS011;10470;42.670;23.354;2023-06-10T06:17:35;14.10;;;10.37;;
20621;SDS011;10470;42.670;23.354;2023-06-10T06:20:01;13.37;;;10.33;;
20621;SDS011;10470;42.670;23.354;2023-06-10T06:22:27;9.60;;;8.40;;
20621;SDS011;10470;42.670;23.354;2023-06-10T06:24:52;13.43;;;10.00;;
20621;SDS011;10470;42.670;23.354;2023-06-10T06:27:18;11.57;;;9.30;;
20621;SDS011;10470;42.670;23.354;2023-06-10T06:29:43;11.83;;;9.40;;
20621;SDS011;10470;42.670;23.354;2023-06-10T06:32:09;13.30;;;10.40;;
20621;SDS011;10470;42.670;23.354;2023-06-10T06:34:34;12.10;;;8.93;;
20621;SDS011;10470;42.670;23.354;2023-06-10T06:37:00;13.43;;;9.67;;
20621;SDS011;10470;42.670;23.354;2023-06-10T06:39:25;13.30;;;8.50;;
20621;SDS011;10470;42.670;23.354;2023-06-10T06:41:51;11.43;;;8.80;;
20621;SDS011;10470;42.670;23.354;2023-06-10T06:44:16;12.73;;;8.70;;
20621;SDS011;10470;42.670;23.354;2023-06-10T06:46:42;9.80;;;8.47;;
20621;SDS011;10470;42.670;23.354;2023-06-10T06:49:07;12.77;;;8.73;;
20621;SDS011;10470;42.670;23.354;2023-06-10T06:51:33;10.10;;;8.70;;
20621;SDS011;10470;42.670;23.354;2023-06-10T06:53:58;13.53;;;9.07;;
20621;SDS011;10470;42.670;23.354;2023-06-10T06:56:24;12.27;;;9.47;;
20621;SDS011;10470;42.670;23.354;2023-06-10T06:58:52;11.17;;;9.80;;
20621;SDS011;10470;42.670;23.354;2023-06-10T07:01:17;12.33;;;10.00;;
20621;SDS011;10470;42.670;23.354;2023-06-10T07:03:43;13.33;;;9.07;;
20621;SDS011;10470;42.670;23.354;2023-06-10T07:06:09;13.57;;;8.90;;
20621;SDS011;10470;42.670;23.354;2023-06-10T07:08:34;13.30;;;8.67;;
20621;SDS011;10470;42.670;23.354;2023-06-10T07:11:00;8.57;;;7.40;;
20621;SDS011;10470;42.670;23.354;2023-06-10T07:13:25;9.63;;;7.53;;
20621;SDS011;10470;42.670;23.354;2023-06-10T07:15:51;8.87;;;7.97;;
20621;SDS011;10470;42.670;23.354;2023-06-10T07:18:16;8.70;;;7.80;;
20621;SDS011;10470;42.670;23.354;2023-06-10T07:20:42;9.47;;;7.63;;
20621;SDS011;10470;42.670;23.354;2023-06-10T07:23:08;12.40;;;8.93;;
20621;SDS011;10470;42.670;23.354;2023-06-10T07:25:33;11.03;;;7.87;;
20621;SDS011;10470;42.670;23.354;2023-06-10T07:27:58;13.70;;;7.23;;
20621;SDS011;10470;42.670;23.354;2023-06-10T07:30:24;11.10;;;6.03;;
20621;SDS011;10470;42.670;23.354;2023-06-10T07:32:50;6.73;;;6.00;;
20621;SDS011;10470;42.670;23.354;2023-06-10T07:35:16;9.10;;;6.87;;
20621;SDS011;10470;42.670;23.354;2023-06-10T07:37:42;7.30;;;6.60;;
20621;SDS011;10470;42.670;23.354;2023-06-10T07:40:07;9.27;;;6.17;;
20621;SDS011;10470;42.670;23.354;2023-06-10T07:42:34;8.30;;;5.70;;
20621;SDS011;10470;42.670;23.354;2023-06-10T07:45:01;7.13;;;5.70;;
20621;SDS011;10470;42.670;23.354;2023-06-10T07:47:26;9.07;;;6.13;;
20621;SDS011;10470;42.670;23.354;2023-06-10T07:49:52;10.60;;;6.20;;
20621;SDS011;10470;42.670;23.354;2023-06-10T07:52:17;7.13;;;5.77;;
20621;SDS011;10470;42.670;23.354;2023-06-10T07:54:43;8.60;;;5.60;;
20621;SDS011;10470;42.670;23.354;2023-06-10T07:57:08;11.67;;;6.23;;
20621;SDS011;10470;42.670;23.354;2023-06-10T07:59:34;7.50;;;5.97;;
20621;SDS011;10470;42.670;23.354;2023-06-10T08:02:00;9.67;;;5.60;;
20621;SDS011;10470;42.670;23.354;2023-06-10T08:04:25;10.30;;;5.00;;
20621;SDS011;10470;42.670;23.354;2023-06-10T08:06:51;9.53;;;5.50;;
20621;SDS011;10470;42.670;23.354;2023-06-10T08:09:16;6.83;;;5.63;;
20621;SDS011;10470;42.670;23.354;2023-06-10T08:11:43;5.87;;;4.27;;
20621;SDS011;10470;42.670;23.354;2023-06-10T08:14:09;5.40;;;4.40;;
20621;SDS011;10470;42.670;23.354;2023-06-10T08:16:35;5.37;;;4.20;;
20621;SDS011;10470;42.670;23.354;2023-06-10T08:19:00;5.10;;;4.60;;
20621;SDS011;10470;42.670;23.354;2023-06-10T08:21:26;4.40;;;3.47;;
20621;SDS011;10470;42.670;23.354;2023-06-10T08:23:53;9.03;;;5.10;;
20621;SDS011;10470;42.670;23.354;2023-06-10T08:26:19;5.83;;;4.13;;
20621;SDS011;10470;42.670;23.354;2023-06-10T08:28:44;3.67;;;3.37;;
20621;SDS011;10470;42.670;23.354;2023-06-10T08:31:10;3.57;;;3.27;;
20621;SDS011;10470;42.670;23.354;2023-06-10T08:33:36;4.33;;;3.20;;
20621;SDS011;10470;42.670;23.354;2023-06-10T08:36:01;4.00;;;3.50;;
20621;SDS011;10470;42.670;23.354;2023-06-10T08:38:27;4.03;;;3.60;;
20621;SDS011;10470;42.670;23.354;2023-06-10T08:40:54;4.87;;;3.60;;
20621;SDS011;10470;42.670;23.354;2023-06-10T08:43:27;5.13;;;3.77;;
20621;SDS011;10470;42.670;23.354;2023-06-10T08:45:55;5.90;;;4.03;;
20621;SDS011;10470;42.670;23.354;2023-06-10T08:48:24;4.17;;;3.63;;
20621;SDS011;10470;42.670;23.354;2023-06-10T08:50:54;3.83;;;3.50;;
20621;SDS011;10470;42.670;23.354;2023-06-10T08:53:22;4.40;;;3.63;;
20621;SDS011;10470;42.670;23.354;2023-06-10T08:55:50;4.20;;;3.80;;
20621;SDS011;10470;42.670;23.354;2023-06-10T08:58:17;3.90;;;3.30;;
20621;SDS011;10470;42.670;23.354;2023-06-10T09:00:43;4.47;;;3.37;;
20621;SDS011;10470;42.670;23.354;2023-06-10T09:03:09;5.87;;;3.77;;
20621;SDS011;10470;42.670;23.354;2023-06-10T09:05:34;4.20;;;3.77;;
20621;SDS011;10470;42.670;23.354;2023-06-10T09:08:01;4.57;;;4.03;;
20621;SDS011;10470;42.670;23.354;2023-06-10T09:10:27;3.90;;;3.60;;
20621;SDS011;10470;42.670;23.354;2023-06-10T09:12:53;4.97;;;3.90;;
20621;SDS011;10470;42.670;23.354;2023-06-10T09:15:19;4.17;;;3.77;;
20621;SDS011;10470;42.670;23.354;2023-06-10T09:17:45;6.30;;;3.27;;
20621;SDS011;10470;42.670;23.354;2023-06-10T09:20:11;3.73;;;3.00;;
20621;SDS011;10470;42.670;23.354;2023-06-10T09:22:37;4.40;;;3.30;;
20621;SDS011;10470;42.670;23.354;2023-06-10T09:25:03;4.77;;;3.20;;
20621;SDS011;10470;42.670;23.354;2023-06-10T09:27:30;6.17;;;3.23;;
20621;SDS011;10470;42.670;23.354;2023-06-10T09:29:59;3.43;;;3.07;;
20621;SDS011;10470;42.670;23.354;2023-06-10T09:32:25;3.90;;;3.60;;
20621;SDS011;10470;42.670;23.354;2023-06-10T09:34:51;3.87;;;3.23;;
20621;SDS011;10470;42.670;23.354;2023-06-10T09:37:20;3.83;;;3.53;;
20621;SDS011;10470;42.670;23.354;2023-06-10T09:40:06;3.60;;;3.30;;
20621;SDS011;10470;42.670;23.354;2023-06-10T09:42:34;5.23;;;3.67;;
20621;SDS011;10470;42.670;23.354;2023-06-10T09:45:01;4.37;;;3.37;;
20621;SDS011;10470;42.670;23.354;2023-06-10T09:47:27;3.80;;;3.47;;
20621;SDS011;10470;42.670;23.354;2023-06-10T09:49:53;5.30;;;3.30;;
20621;SDS011;10470;42.670;23.354;2023-06-10T09:52:22;4.03;;;3.63;;
20621;SDS011;10470;42.670;23.354;2023-06-10T09:54:49;4.27;;;3.83;;
20621;SDS011;10470;42.670;23.354;2023-06-10T09:57:19;4.03;;;3.63;;
20621;SDS011;10470;42.670;23.354;2023-06-10T09:59:46;4.03;;;3.33;;
20621;SDS011;10470;42.670;23.354;2023-06-10T10:02:18;4.27;;;3.20;;
20621;SDS011;10470;42.670;23.354;2023-06-10T10:04:44;3.53;;;3.17;;
20621;SDS011;10470;42.670;23.354;2023-06-10T10:07:10;3.47;;;3.13;;
20621;SDS011;10470;42.670;23.354;2023-06-10T10:09:36;4.03;;;3.63;;
20621;SDS011;10470;42.670;23.354;2023-06-10T10:12:02;4.17;;;3.40;;
20621;SDS011;10470;42.670;23.354;2023-06-10T10:14:33;4.80;;;2.80;;
20621;SDS011;10470;42.670;23.354;2023-06-10T10:17:01;2.77;;;2.57;;
20621;SDS011;10470;42.670;23.354;2023-06-10T10:19:30;3.50;;;3.00;;
20621;SDS011;10470;42.670;23.354;2023-06-10T10:22:04;2.87;;;2.67;;
20621;SDS011;10470;42.670;23.354;2023-06-10T10:24:38;3.60;;;3.30;;
20621;SDS011;10470;42.670;23.354;2023-06-10T10:27:11;5.20;;;4.57;;
20621;SDS011;10470;42.670;23.354;2023-06-10T10:29:41;3.40;;;3.10;;
20621;SDS011;10470;42.670;23.354;2023-06-10T10:32:12;3.70;;;3.40;;
20621;SDS011;10470;42.670;23.354;2023-06-10T10:34:45;4.40;;;2.90;;
20621;SDS011;10470;42.670;23.354;2023-06-10T10:37:19;5.40;;;2.90;;
20621;SDS011;10470;42.670;23.354;2023-06-10T10:39:45;3.03;;;2.83;;
20621;SDS011;10470;42.670;23.354;2023-06-10T10:42:11;3.73;;;3.43;;
20621;SDS011;10470;42.670;23.354;2023-06-10T10:44:38;4.03;;;3.50;;
20621;SDS011;10470;42.670;23.354;2023-06-10T10:47:06;3.73;;;3.40;;
20621;SDS011;10470;42.670;23.354;2023-06-10T10:49:33;4.43;;;3.43;;
20621;SDS011;10470;42.670;23.354;2023-06-10T10:52:02;4.53;;;3.57;;
20621;SDS011;10470;42.670;23.354;2023-06-10T10:54:34;4.20;;;3.80;;
20621;SDS011;10470;42.670;23.354;2023-06-10T10:57:19;3.53;;;3.17;;
20621;SDS011;10470;42.670;23.354;2023-06-10T11:05:03;3.90;;;3.27;;
20621;SDS011;10470;42.670;23.354;2023-06-10T11:07:33;5.97;;;3.40;;
20621;SDS011;10470;42.670;23.354;2023-06-10T11:15:13;5.87;;;3.70;;
20621;SDS011;10470;42.670;23.354;2023-06-10T11:20:41;3.90;;;3.50;;
20621;SDS011;10470;42.670;23.354;2023-06-10T11:23:07;4.00;;;3.60;;
20621;SDS011;10470;42.670;23.354;2023-06-10T11:25:39;4.40;;;3.43;;
20621;SDS011;10470;42.670;23.354;2023-06-10T11:28:21;3.90;;;3.40;;
20621;SDS011;10470;42.670;23.354;2023-06-10T11:30:57;3.70;;;3.40;;
20621;SDS011;10470;42.670;23.354;2023-06-10T11:33:23;4.00;;;3.60;;
20621;SDS011;10470;42.670;23.354;2023-06-10T11:35:50;6.07;;;4.10;;
20621;SDS011;10470;42.670;23.354;2023-06-10T11:38:15;5.13;;;3.73;;
20621;SDS011;10470;42.670;23.354;2023-06-10T11:40:46;4.70;;;4.30;;
20621;SDS011;10470;42.670;23.354;2023-06-10T11:43:18;4.00;;;3.60;;
20621;SDS011;10470;42.670;23.354;2023-06-10T11:45:44;4.20;;;3.80;;
20621;SDS011;10470;42.670;23.354;2023-06-10T11:48:10;4.80;;;4.27;;
20621;SDS011;10470;42.670;23.354;2023-06-10T11:50:35;4.20;;;3.80;;
20621;SDS011;10470;42.670;23.354;2023-06-10T11:53:02;4.60;;;4.20;;
20621;SDS011;10470;42.670;23.354;2023-06-10T11:55:47;4.47;;;4.07;;
20621;SDS011;10470;42.670;23.354;2023-06-10T12:00:50;8.07;;;5.87;;
20621;SDS011;10470;42.670;23.354;2023-06-10T12:03:18;5.23;;;3.93;;
20621;SDS011;10470;42.670;23.354;2023-06-10T12:05:58;4.00;;;3.60;;
20621;SDS011;10470;42.670;23.354;2023-06-10T12:08:24;3.87;;;3.43;;
20621;SDS011;10470;42.670;23.354;2023-06-10T12:10:51;4.03;;;3.60;;
20621;SDS011;10470;42.670;23.354;2023-06-10T12:13:17;5.00;;;3.20;;
20621;SDS011;10470;42.670;23.354;2023-06-10T12:15:47;4.00;;;3.60;;
20621;SDS011;10470;42.670;23.354;2023-06-10T12:18:20;3.83;;;3.43;;
20621;SDS011;10470;42.670;23.354;2023-06-10T12:20:47;3.40;;;3.20;;
20621;SDS011;10470;42.670;23.354;2023-06-10T12:23:14;5.83;;;3.47;;
20621;SDS011;10470;42.670;23.354;2023-06-10T12:25:49;3.60;;;3.00;;
20621;SDS011;10470;42.670;23.354;2023-06-10T12:28:27;4.13;;;2.90;;
20621;SDS011;10470;42.670;23.354;2023-06-10T12:31:06;3.67;;;3.00;;
20621;SDS011;10470;42.670;23.354;2023-06-10T12:33:32;3.63;;;3.07;;
20621;SDS011;10470;42.670;23.354;2023-06-10T12:35:58;3.47;;;3.03;;
20621;SDS011;10470;42.670;23.354;2023-06-10T12:38:25;3.37;;;3.13;;
20621;SDS011;10470;42.670;23.354;2023-06-10T12:40:54;7.13;;;3.30;;
20621;SDS011;10470;42.670;23.354;2023-06-10T12:43:26;3.50;;;3.20;;
20621;SDS011;10470;42.670;23.354;2023-06-10T12:45:52;4.70;;;3.30;;
20621;SDS011;10470;42.670;23.354;2023-06-10T12:48:21;3.40;;;3.10;;
20621;SDS011;10470;42.670;23.354;2023-06-10T12:50:52;3.20;;;2.90;;
20621;SDS011;10470;42.670;23.354;2023-06-10T12:53:20;6.63;;;3.30;;
20621;SDS011;10470;42.670;23.354;2023-06-10T12:55:46;3.50;;;3.20;;
20621;SDS011;10470;42.670;23.354;2023-06-10T12:58:12;4.47;;;3.20;;
20621;SDS011;10470;42.670;23.354;2023-06-10T13:00:38;4.60;;;3.37;;
20621;SDS011;10470;42.670;23.354;2023-06-10T13:03:04;4.33;;;3.50;;
20621;SDS011;10470;42.670;23.354;2023-06-10T13:05:33;3.60;;;3.30;;
20621;SDS011;10470;42.670;23.354;2023-06-10T13:08:00;5.20;;;3.47;;
20621;SDS011;10470;42.670;23.354;2023-06-10T13:10:26;3.53;;;2.93;;
20621;SDS011;10470;42.670;23.354;2023-06-10T13:12:52;3.40;;;3.10;;
20621;SDS011;10470;42.670;23.354;2023-06-10T13:15:19;3.50;;;3.20;;
20621;SDS011;10470;42.670;23.354;2023-06-10T13:17:45;4.50;;;2.90;;
20621;SDS011;10470;42.670;23.354;2023-06-10T13:20:14;3.93;;;3.53;;
20621;SDS011;10470;42.670;23.354;2023-06-10T13:22:41;3.93;;;3.50;;
20621;SDS011;10470;42.670;23.354;2023-06-10T13:25:07;5.20;;;3.37;;
20621;SDS011;10470;42.670;23.354;2023-06-10T13:27:33;3.33;;;3.03;;
20621;SDS011;10470;42.670;23.354;2023-06-10T13:30:05;7.13;;;4.17;;
20621;SDS011;10470;42.670;23.354;2023-06-10T13:32:31;5.83;;;3.90;;
20621;SDS011;10470;42.670;23.354;2023-06-10T13:34:57;6.77;;;4.10;;
20621;SDS011;10470;42.670;23.354;2023-06-10T13:37:23;5.40;;;3.90;;
20621;SDS011;10470;42.670;23.354;2023-06-10T13:39:48;6.07;;;4.00;;
20621;SDS011;10470;42.670;23.354;2023-06-10T13:42:19;6.10;;;4.10;;
20621;SDS011;10470;42.670;23.354;2023-06-10T13:44:44;5.57;;;3.90;;
20621;SDS011;10470;42.670;23.354;2023-06-10T13:47:10;5.03;;;3.97;;
20621;SDS011;10470;42.670;23.354;2023-06-10T13:49:36;4.53;;;4.10;;
20621;SDS011;10470;42.670;23.354;2023-06-10T13:52:02;6.17;;;4.10;;
20621;SDS011;10470;42.670;23.354;2023-06-10T13:54:28;4.50;;;4.10;;
20621;SDS011;10470;42.670;23.354;2023-06-10T13:56:54;9.10;;;4.80;;
20621;SDS011;10470;42.670;23.354;2023-06-10T13:59:20;7.57;;;4.53;;
20621;SDS011;10470;42.670;23.354;2023-06-10T14:01:46;9.57;;;5.57;;
20621;SDS011;10470;42.670;23.354;2023-06-10T14:04:12;7.43;;;4.70;;
20621;SDS011;10470;42.670;23.354;2023-06-10T14:06:37;6.23;;;4.27;;
20621;SDS011;10470;42.670;23.354;2023-06-10T14:09:03;6.80;;;4.57;;
20621;SDS011;10470;42.670;23.354;2023-06-10T14:11:29;5.17;;;4.50;;
20621;SDS011;10470;42.670;23.354;2023-06-10T14:13:55;5.57;;;4.30;;
20621;SDS011;10470;42.670;23.354;2023-06-10T14:16:26;5.70;;;4.50;;
20621;SDS011;10470;42.670;23.354;2023-06-10T14:18:52;4.87;;;4.40;;
20621;SDS011;10470;42.670;23.354;2023-06-10T14:21:18;6.23;;;4.60;;
20621;SDS011;10470;42.670;23.354;2023-06-10T14:23:44;4.83;;;4.43;;
20621;SDS011;10470;42.670;23.354;2023-06-10T14:26:10;4.90;;;4.20;;
20621;SDS011;10470;42.670;23.354;2023-06-10T14:28:36;7.07;;;4.00;;
20621;SDS011;10470;42.670;23.354;2023-06-10T14:31:01;5.23;;;4.17;;
20621;SDS011;10470;42.670;23.354;2023-06-10T14:33:27;4.50;;;4.10;;
20621;SDS011;10470;42.670;23.354;2023-06-10T14:35:53;5.77;;;3.90;;
20621;SDS011;10470;42.670;23.354;2023-06-10T14:38:19;5.80;;;5.20;;
20621;SDS011;10470;42.670;23.354;2023-06-10T14:40:44;4.37;;;3.97;;
20621;SDS011;10470;42.670;23.354;2023-06-10T14:43:10;5.47;;;4.13;;
20621;SDS011;10470;42.670;23.354;2023-06-10T14:45:36;5.47;;;4.33;;
20621;SDS011;10470;42.670;23.354;2023-06-10T14:48:02;5.53;;;3.83;;